sensor_id;sensor_type;location;lat;lon;timestamp;temperature;humidity
60039;DHT22;45916;52.734;6.544;2022-09-03T00:10:55;15.00;72.10
60039;DHT22;45916;52.734;6.544;2022-09-03T00:13:43;15.00;72.40
60039;DHT22;45916;52.734;6.544;2022-09-03T00:16:12;15.10;72.70
60039;DHT22;45916;52.734;6.544;2022-09-03T00:18:51;15.10;72.00
60039;DHT22;45916;52.734;6.544;2022-09-03T00:21:40;15.00;72.10
60039;DHT22;45916;52.734;6.544;2022-09-03T00:24:12;15.00;72.70
60039;DHT22;45916;52.734;6.544;2022-09-03T00:26:41;14.90;72.70
60039;DHT22;45916;52.734;6.544;2022-09-03T00:29:16;14.90;72.50
60039;DHT22;45916;52.734;6.544;2022-09-03T00:32:17;14.90;72.30
60039;DHT22;45916;52.734;6.544;2022-09-03T00:34:51;14.90;72.80
60039;DHT22;45916;52.734;6.544;2022-09-03T00:37:18;14.90;72.30
60039;DHT22;45916;52.734;6.544;2022-09-03T00:39:43;14.90;72.10
60039;DHT22;45916;52.734;6.544;2022-09-03T01:07:45;14.40;74.60
60039;DHT22;45916;52.734;6.544;2022-09-03T01:13:19;14.20;74.90
60039;DHT22;45916;52.734;6.544;2022-09-03T01:18:27;14.10;75.20
60039;DHT22;45916;52.734;6.544;2022-09-03T01:23:52;14.10;75.60
60039;DHT22;45916;52.734;6.544;2022-09-03T01:29:51;14.10;76.30
60039;DHT22;45916;52.734;6.544;2022-09-03T01:37:56;14.10;75.70
60039;DHT22;45916;52.734;6.544;2022-09-03T01:40:46;14.10;75.90
60039;DHT22;45916;52.734;6.544;2022-09-03T01:46:09;14.20;75.90
60039;DHT22;45916;52.734;6.544;2022-09-03T01:49:18;14.10;76.00
60039;DHT22;45916;52.734;6.544;2022-09-03T01:51:36;14.20;76.10
60039;DHT22;45916;52.734;6.544;2022-09-03T01:54:15;14.20;76.00
60039;DHT22;45916;52.734;6.544;2022-09-03T02:00:34;14.20;76.00
60039;DHT22;45916;52.734;6.544;2022-09-03T02:03:06;14.20;76.20
60039;DHT22;45916;52.734;6.544;2022-09-03T02:05:33;14.20;76.00
60039;DHT22;45916;52.734;6.544;2022-09-03T02:08:07;14.20;76.20
60039;DHT22;45916;52.734;6.544;2022-09-03T02:10:43;14.30;77.40
60039;DHT22;45916;52.734;6.544;2022-09-03T02:15:44;14.50;75.90
60039;DHT22;45916;52.734;6.544;2022-09-03T02:18:18;14.50;75.50
60039;DHT22;45916;52.734;6.544;2022-09-03T02:20:45;14.50;75.40
60039;DHT22;45916;52.734;6.544;2022-09-03T02:23:12;14.60;75.20
60039;DHT22;45916;52.734;6.544;2022-09-03T02:25:42;14.80;74.70
60039;DHT22;45916;52.734;6.544;2022-09-03T02:28:09;14.80;74.50
60039;DHT22;45916;52.734;6.544;2022-09-03T02:30:35;14.90;74.20
60039;DHT22;45916;52.734;6.544;2022-09-03T02:33:00;14.90;74.10
60039;DHT22;45916;52.734;6.544;2022-09-03T02:35:27;14.90;74.00
60039;DHT22;45916;52.734;6.544;2022-09-03T02:37:52;14.90;74.20
60039;DHT22;45916;52.734;6.544;2022-09-03T02:40:18;15.00;73.90
60039;DHT22;45916;52.734;6.544;2022-09-03T02:42:46;15.00;73.80
60039;DHT22;45916;52.734;6.544;2022-09-03T02:45:19;15.00;73.50
60039;DHT22;45916;52.734;6.544;2022-09-03T02:47:52;15.00;73.60
60039;DHT22;45916;52.734;6.544;2022-09-03T02:50:18;15.10;73.60
60039;DHT22;45916;52.734;6.544;2022-09-03T02:52:44;15.00;73.40
60039;DHT22;45916;52.734;6.544;2022-09-03T02:55:09;15.10;73.30
60039;DHT22;45916;52.734;6.544;2022-09-03T02:57:35;15.10;73.30
60039;DHT22;45916;52.734;6.544;2022-09-03T03:00:01;15.20;72.80
60039;DHT22;45916;52.734;6.544;2022-09-03T03:02:27;15.20;73.10
60039;DHT22;45916;52.734;6.544;2022-09-03T03:04:53;15.10;72.90
60039;DHT22;45916;52.734;6.544;2022-09-03T03:07:20;15.10;73.20
60039;DHT22;45916;52.734;6.544;2022-09-03T03:09:46;15.10;73.20
60039;DHT22;45916;52.734;6.544;2022-09-03T03:12:11;15.00;73.20
60039;DHT22;45916;52.734;6.544;2022-09-03T03:14:37;15.00;73.20
60039;DHT22;45916;52.734;6.544;2022-09-03T03:17:03;15.00;73.60
60039;DHT22;45916;52.734;6.544;2022-09-03T03:19:29;14.90;73.30
60039;DHT22;45916;52.734;6.544;2022-09-03T03:21:54;14.90;73.50
60039;DHT22;45916;52.734;6.544;2022-09-03T03:24:20;14.90;73.70
60039;DHT22;45916;52.734;6.544;2022-09-03T03:26:46;14.80;73.80
60039;DHT22;45916;52.734;6.544;2022-09-03T03:29:16;14.80;74.00
60039;DHT22;45916;52.734;6.544;2022-09-03T03:31:42;14.70;74.20
60039;DHT22;45916;52.734;6.544;2022-09-03T03:34:08;14.70;74.60
60039;DHT22;45916;52.734;6.544;2022-09-03T03:36:34;14.60;74.70
60039;DHT22;45916;52.734;6.544;2022-09-03T03:39:01;14.60;74.80
60039;DHT22;45916;52.734;6.544;2022-09-03T03:41:30;14.50;75.10
60039;DHT22;45916;52.734;6.544;2022-09-03T03:43:56;14.50;75.40
60039;DHT22;45916;52.734;6.544;2022-09-03T03:46:24;14.40;75.70
60039;DHT22;45916;52.734;6.544;2022-09-03T03:48:51;14.40;75.60
60039;DHT22;45916;52.734;6.544;2022-09-03T03:51:17;14.40;75.70
60039;DHT22;45916;52.734;6.544;2022-09-03T03:53:43;14.40;75.60
60039;DHT22;45916;52.734;6.544;2022-09-03T03:56:11;14.30;76.90
60039;DHT22;45916;52.734;6.544;2022-09-03T03:58:37;14.30;76.30
60039;DHT22;45916;52.734;6.544;2022-09-03T04:01:15;14.20;76.30
60039;DHT22;45916;52.734;6.544;2022-09-03T04:03:41;14.20;76.70
60039;DHT22;45916;52.734;6.544;2022-09-03T04:06:09;14.10;76.60
60039;DHT22;45916;52.734;6.544;2022-09-03T04:08:40;14.00;76.70
60039;DHT22;45916;52.734;6.544;2022-09-03T04:11:08;14.00;77.00
60039;DHT22;45916;52.734;6.544;2022-09-03T04:13:37;13.90;77.40
60039;DHT22;45916;52.734;6.544;2022-09-03T04:16:08;13.80;78.00
60039;DHT22;45916;52.734;6.544;2022-09-03T04:18:35;13.70;78.40
60039;DHT22;45916;52.734;6.544;2022-09-03T04:21:12;13.60;78.60
60039;DHT22;45916;52.734;6.544;2022-09-03T04:23:39;13.60;79.20
60039;DHT22;45916;52.734;6.544;2022-09-03T04:26:07;13.50;79.50
60039;DHT22;45916;52.734;6.544;2022-09-03T04:28:33;13.50;79.50
60039;DHT22;45916;52.734;6.544;2022-09-03T04:31:07;13.40;79.80
60039;DHT22;45916;52.734;6.544;2022-09-03T04:33:34;13.30;80.60
60039;DHT22;45916;52.734;6.544;2022-09-03T04:36:07;13.30;80.60
60039;DHT22;45916;52.734;6.544;2022-09-03T04:38:35;13.20;82.00
60039;DHT22;45916;52.734;6.544;2022-09-03T04:41:01;13.10;82.80
60039;DHT22;45916;52.734;6.544;2022-09-03T04:43:27;13.10;82.30
60039;DHT22;45916;52.734;6.544;2022-09-03T04:46:01;13.10;82.40
60039;DHT22;45916;52.734;6.544;2022-09-03T04:48:29;13.00;82.80
60039;DHT22;45916;52.734;6.544;2022-09-03T04:51:01;13.00;83.40
60039;DHT22;45916;52.734;6.544;2022-09-03T04:53:30;13.00;83.50
60039;DHT22;45916;52.734;6.544;2022-09-03T04:55:56;13.00;84.50
60039;DHT22;45916;52.734;6.544;2022-09-03T04:58:21;13.00;84.00
60039;DHT22;45916;52.734;6.544;2022-09-03T05:00:47;13.00;84.50
60039;DHT22;45916;52.734;6.544;2022-09-03T05:03:13;13.10;84.60
60039;DHT22;45916;52.734;6.544;2022-09-03T05:05:38;13.20;84.90
60039;DHT22;45916;52.734;6.544;2022-09-03T05:08:04;13.40;84.90
60039;DHT22;45916;52.734;6.544;2022-09-03T05:10:32;13.60;84.10
60039;DHT22;45916;52.734;6.544;2022-09-03T05:13:03;14.00;83.10
60039;DHT22;45916;52.734;6.544;2022-09-03T05:15:31;14.30;81.80
60039;DHT22;45916;52.734;6.544;2022-09-03T05:18:01;14.60;80.60
60039;DHT22;45916;52.734;6.544;2022-09-03T05:20:28;14.80;79.60
60039;DHT22;45916;52.734;6.544;2022-09-03T05:22:55;15.00;78.80
60039;DHT22;45916;52.734;6.544;2022-09-03T05:25:22;15.20;78.30
60039;DHT22;45916;52.734;6.544;2022-09-03T05:27:48;15.30;77.20
60039;DHT22;45916;52.734;6.544;2022-09-03T05:30:15;15.40;76.60
60039;DHT22;45916;52.734;6.544;2022-09-03T05:32:41;15.70;76.90
60039;DHT22;45916;52.734;6.544;2022-09-03T05:35:07;16.30;75.80
60039;DHT22;45916;52.734;6.544;2022-09-03T05:37:33;16.80;73.00
60039;DHT22;45916;52.734;6.544;2022-09-03T05:39:59;17.20;71.30
60039;DHT22;45916;52.734;6.544;2022-09-03T05:42:24;17.60;70.40
60039;DHT22;45916;52.734;6.544;2022-09-03T05:44:52;18.00;68.70
60039;DHT22;45916;52.734;6.544;2022-09-03T05:47:17;18.30;67.50
60039;DHT22;45916;52.734;6.544;2022-09-03T05:49:43;18.50;66.50
60039;DHT22;45916;52.734;6.544;2022-09-03T05:52:08;18.30;65.30
60039;DHT22;45916;52.734;6.544;2022-09-03T05:54:34;17.90;66.40
60039;DHT22;45916;52.734;6.544;2022-09-03T05:57:00;17.70;66.60
60039;DHT22;45916;52.734;6.544;2022-09-03T05:59:26;17.50;67.40
60039;DHT22;45916;52.734;6.544;2022-09-03T06:01:52;17.50;67.80
60039;DHT22;45916;52.734;6.544;2022-09-03T06:04:18;17.40;68.50
60039;DHT22;45916;52.734;6.544;2022-09-03T06:06:45;17.60;68.20
60039;DHT22;45916;52.734;6.544;2022-09-03T06:09:13;18.30;67.80
60039;DHT22;45916;52.734;6.544;2022-09-03T06:11:41;19.30;66.40
60039;DHT22;45916;52.734;6.544;2022-09-03T06:14:09;20.30;62.90
60039;DHT22;45916;52.734;6.544;2022-09-03T06:16:46;21.00;60.60
60039;DHT22;45916;52.734;6.544;2022-09-03T06:19:14;21.30;57.80
60039;DHT22;45916;52.734;6.544;2022-09-03T06:21:44;20.60;58.30
60039;DHT22;45916;52.734;6.544;2022-09-03T06:24:12;20.20;59.20
60039;DHT22;45916;52.734;6.544;2022-09-03T06:26:39;19.80;60.40
60039;DHT22;45916;52.734;6.544;2022-09-03T06:29:05;20.10;60.20
60039;DHT22;45916;52.734;6.544;2022-09-03T06:31:31;20.90;58.60
60039;DHT22;45916;52.734;6.544;2022-09-03T06:33:57;21.50;57.30
60039;DHT22;45916;52.734;6.544;2022-09-03T06:36:24;22.30;56.60
60039;DHT22;45916;52.734;6.544;2022-09-03T06:38:51;22.60;54.70
60039;DHT22;45916;52.734;6.544;2022-09-03T06:41:19;22.60;53.20
60039;DHT22;45916;52.734;6.544;2022-09-03T06:43:52;22.90;53.60
60039;DHT22;45916;52.734;6.544;2022-09-03T06:46:22;22.80;52.60
60039;DHT22;45916;52.734;6.544;2022-09-03T06:48:48;22.70;53.10
60039;DHT22;45916;52.734;6.544;2022-09-03T06:51:20;23.30;52.30
60039;DHT22;45916;52.734;6.544;2022-09-03T06:53:51;23.30;51.60
60039;DHT22;45916;52.734;6.544;2022-09-03T06:56:23;23.10;50.90
60039;DHT22;45916;52.734;6.544;2022-09-03T06:58:56;22.80;52.50
60039;DHT22;45916;52.734;6.544;2022-09-03T07:01:27;23.30;50.90
60039;DHT22;45916;52.734;6.544;2022-09-03T07:04:00;22.80;52.00
60039;DHT22;45916;52.734;6.544;2022-09-03T07:06:28;22.70;52.40
60039;DHT22;45916;52.734;6.544;2022-09-03T07:08:54;22.80;51.90
60039;DHT22;45916;52.734;6.544;2022-09-03T07:11:23;22.70;51.80
60039;DHT22;45916;52.734;6.544;2022-09-03T07:13:51;23.10;51.20
60039;DHT22;45916;52.734;6.544;2022-09-03T07:16:20;23.40;51.30
60039;DHT22;45916;52.734;6.544;2022-09-03T07:18:47;23.70;50.50
60039;DHT22;45916;52.734;6.544;2022-09-03T07:21:18;23.90;49.90
60039;DHT22;45916;52.734;6.544;2022-09-03T07:23:45;24.10;49.90
60039;DHT22;45916;52.734;6.544;2022-09-03T07:26:14;23.60;49.60
60039;DHT22;45916;52.734;6.544;2022-09-03T07:28:41;23.70;49.60
60039;DHT22;45916;52.734;6.544;2022-09-03T07:31:10;24.20;49.20
60039;DHT22;45916;52.734;6.544;2022-09-03T07:33:40;24.40;48.80
60039;DHT22;45916;52.734;6.544;2022-09-03T07:36:11;24.40;48.60
60039;DHT22;45916;52.734;6.544;2022-09-03T07:38:39;24.30;48.60
60039;DHT22;45916;52.734;6.544;2022-09-03T07:41:07;24.70;48.00
60039;DHT22;45916;52.734;6.544;2022-09-03T07:43:34;24.80;47.80
60039;DHT22;45916;52.734;6.544;2022-09-03T07:46:00;25.50;47.60
60039;DHT22;45916;52.734;6.544;2022-09-03T07:48:27;26.20;46.50
60039;DHT22;45916;52.734;6.544;2022-09-03T07:50:59;26.80;45.70
60039;DHT22;45916;52.734;6.544;2022-09-03T07:53:28;27.10;45.00
60039;DHT22;45916;52.734;6.544;2022-09-03T07:56:00;27.40;44.00
60039;DHT22;45916;52.734;6.544;2022-09-03T07:58:28;27.70;43.40
60039;DHT22;45916;52.734;6.544;2022-09-03T08:00:55;26.50;44.30
60039;DHT22;45916;52.734;6.544;2022-09-03T08:03:21;27.00;44.10
60039;DHT22;45916;52.734;6.544;2022-09-03T08:05:47;27.10;43.80
60039;DHT22;45916;52.734;6.544;2022-09-03T08:08:13;27.30;45.00
60039;DHT22;45916;52.734;6.544;2022-09-03T08:10:40;27.80;43.30
60039;DHT22;45916;52.734;6.544;2022-09-03T08:13:06;27.90;42.50
60039;DHT22;45916;52.734;6.544;2022-09-03T08:15:32;27.90;43.30
60039;DHT22;45916;52.734;6.544;2022-09-03T08:17:59;28.60;42.00
60039;DHT22;45916;52.734;6.544;2022-09-03T08:20:25;28.80;41.50
60039;DHT22;45916;52.734;6.544;2022-09-03T08:22:52;28.50;41.90
60039;DHT22;45916;52.734;6.544;2022-09-03T08:25:18;28.80;41.60
60039;DHT22;45916;52.734;6.544;2022-09-03T08:27:44;29.20;40.70
60039;DHT22;45916;52.734;6.544;2022-09-03T08:30:09;29.50;40.80
60039;DHT22;45916;52.734;6.544;2022-09-03T08:32:39;29.50;40.10
60039;DHT22;45916;52.734;6.544;2022-09-03T08:35:06;28.70;40.30
60039;DHT22;45916;52.734;6.544;2022-09-03T08:37:34;28.80;41.00
60039;DHT22;45916;52.734;6.544;2022-09-03T08:39:59;29.00;41.10
60039;DHT22;45916;52.734;6.544;2022-09-03T08:42:48;28.90;40.60
60039;DHT22;45916;52.734;6.544;2022-09-03T08:45:16;29.40;40.70
60039;DHT22;45916;52.734;6.544;2022-09-03T08:48:06;28.90;40.70
60039;DHT22;45916;52.734;6.544;2022-09-03T08:50:39;29.10;40.70
60039;DHT22;45916;52.734;6.544;2022-09-03T08:53:22;30.00;39.40
60039;DHT22;45916;52.734;6.544;2022-09-03T08:55:54;30.20;38.80
60039;DHT22;45916;52.734;6.544;2022-09-03T08:58:29;30.10;40.20
60039;DHT22;45916;52.734;6.544;2022-09-03T09:04:22;30.80;38.70
60039;DHT22;45916;52.734;6.544;2022-09-03T09:09:56;30.10;39.70
60039;DHT22;45916;52.734;6.544;2022-09-03T09:15:48;31.60;38.10
60039;DHT22;45916;52.734;6.544;2022-09-03T09:18:43;32.10;37.10
60039;DHT22;45916;52.734;6.544;2022-09-03T09:21:38;32.00;37.40
60039;DHT22;45916;52.734;6.544;2022-09-03T09:24:18;32.00;37.70
60039;DHT22;45916;52.734;6.544;2022-09-03T09:26:46;32.20;37.00
60039;DHT22;45916;52.734;6.544;2022-09-03T09:29:13;31.70;37.80
60039;DHT22;45916;52.734;6.544;2022-09-03T09:31:40;32.20;37.30
60039;DHT22;45916;52.734;6.544;2022-09-03T09:34:09;32.10;37.80
60039;DHT22;45916;52.734;6.544;2022-09-03T09:36:55;31.40;37.80
60039;DHT22;45916;52.734;6.544;2022-09-03T09:39:21;32.20;36.50
60039;DHT22;45916;52.734;6.544;2022-09-03T09:42:01;32.00;36.90
60039;DHT22;45916;52.734;6.544;2022-09-03T09:44:30;32.20;37.50
60039;DHT22;45916;52.734;6.544;2022-09-03T09:47:15;32.50;36.60
60039;DHT22;45916;52.734;6.544;2022-09-03T09:52:13;32.60;36.20
60039;DHT22;45916;52.734;6.544;2022-09-03T09:54:42;32.40;36.30
60039;DHT22;45916;52.734;6.544;2022-09-03T09:57:15;32.50;36.90
60039;DHT22;45916;52.734;6.544;2022-09-03T09:59:43;32.90;37.40
60039;DHT22;45916;52.734;6.544;2022-09-03T10:04:43;32.40;36.50
60039;DHT22;45916;52.734;6.544;2022-09-03T10:07:19;32.40;36.00
60039;DHT22;45916;52.734;6.544;2022-09-03T10:10:00;32.70;36.20
60039;DHT22;45916;52.734;6.544;2022-09-03T10:12:33;33.00;36.50
60039;DHT22;45916;52.734;6.544;2022-09-03T10:17:59;32.50;37.30
60039;DHT22;45916;52.734;6.544;2022-09-03T10:20:51;31.00;36.80
60039;DHT22;45916;52.734;6.544;2022-09-03T10:23:27;31.50;36.90
60039;DHT22;45916;52.734;6.544;2022-09-03T10:28:26;31.30;38.30
60039;DHT22;45916;52.734;6.544;2022-09-03T10:34:04;31.80;37.30
60039;DHT22;45916;52.734;6.544;2022-09-03T10:39:22;31.90;37.80
60039;DHT22;45916;52.734;6.544;2022-09-03T10:55:07;32.80;35.10
60039;DHT22;45916;52.734;6.544;2022-09-03T11:00:32;32.60;35.10
60039;DHT22;45916;52.734;6.544;2022-09-03T11:05:55;31.80;34.80
60039;DHT22;45916;52.734;6.544;2022-09-03T11:08:37;30.80;36.70
60039;DHT22;45916;52.734;6.544;2022-09-03T11:11:23;30.00;37.30
60039;DHT22;45916;52.734;6.544;2022-09-03T11:14:06;29.30;39.60
60039;DHT22;45916;52.734;6.544;2022-09-03T11:16:49;29.00;39.30
60039;DHT22;45916;52.734;6.544;2022-09-03T11:19:19;28.10;39.50
60039;DHT22;45916;52.734;6.544;2022-09-03T11:21:47;27.30;41.80
60039;DHT22;45916;52.734;6.544;2022-09-03T11:24:21;27.10;40.80
60039;DHT22;45916;52.734;6.544;2022-09-03T11:29:47;26.10;42.20
60039;DHT22;45916;52.734;6.544;2022-09-03T11:32:21;25.80;42.80
60039;DHT22;45916;52.734;6.544;2022-09-03T11:34:51;25.70;44.00
60039;DHT22;45916;52.734;6.544;2022-09-03T11:37:24;25.40;43.10
60039;DHT22;45916;52.734;6.544;2022-09-03T11:40:13;25.30;42.70
60039;DHT22;45916;52.734;6.544;2022-09-03T11:42:44;25.20;43.10
60039;DHT22;45916;52.734;6.544;2022-09-03T11:47:48;25.10;43.70
60039;DHT22;45916;52.734;6.544;2022-09-03T11:52:51;25.00;44.00
60039;DHT22;45916;52.734;6.544;2022-09-03T11:55:53;25.00;44.00
60039;DHT22;45916;52.734;6.544;2022-09-03T11:58:28;25.00;44.70
60039;DHT22;45916;52.734;6.544;2022-09-03T12:00:55;24.90;44.00
60039;DHT22;45916;52.734;6.544;2022-09-03T12:03:27;25.00;44.30
60039;DHT22;45916;52.734;6.544;2022-09-03T12:19:43;25.00;44.60
60039;DHT22;45916;52.734;6.544;2022-09-03T12:22:14;25.10;44.30
60039;DHT22;45916;52.734;6.544;2022-09-03T12:24:41;25.00;44.30
60039;DHT22;45916;52.734;6.544;2022-09-03T12:27:11;25.00;44.30
60039;DHT22;45916;52.734;6.544;2022-09-03T12:29:58;25.10;44.40
60039;DHT22;45916;52.734;6.544;2022-09-03T12:32:33;25.10;45.10
60039;DHT22;45916;52.734;6.544;2022-09-03T12:35:17;25.10;44.80
60039;DHT22;45916;52.734;6.544;2022-09-03T12:37:44;25.20;44.70
60039;DHT22;45916;52.734;6.544;2022-09-03T12:40:31;25.30;44.30
60039;DHT22;45916;52.734;6.544;2022-09-03T12:43:15;25.30;43.70
60039;DHT22;45916;52.734;6.544;2022-09-03T12:45:43;25.20;47.00
60039;DHT22;45916;52.734;6.544;2022-09-03T12:48:14;25.30;44.00
60039;DHT22;45916;52.734;6.544;2022-09-03T12:50:41;25.30;44.80
60039;DHT22;45916;52.734;6.544;2022-09-03T12:53:09;25.40;45.00
60039;DHT22;45916;52.734;6.544;2022-09-03T12:55:51;25.30;45.30
60039;DHT22;45916;52.734;6.544;2022-09-03T12:58:46;25.20;44.90
60039;DHT22;45916;52.734;6.544;2022-09-03T13:01:21;25.30;45.90
60039;DHT22;45916;52.734;6.544;2022-09-03T13:03:56;25.30;43.80
60039;DHT22;45916;52.734;6.544;2022-09-03T13:06:34;25.30;44.00
60039;DHT22;45916;52.734;6.544;2022-09-03T13:09:07;25.10;43.60
60039;DHT22;45916;52.734;6.544;2022-09-03T13:11:34;25.10;44.10
60039;DHT22;45916;52.734;6.544;2022-09-03T13:14:10;25.10;44.20
60039;DHT22;45916;52.734;6.544;2022-09-03T13:19:44;25.30;45.80
60039;DHT22;45916;52.734;6.544;2022-09-03T13:30:47;25.40;45.20
60039;DHT22;45916;52.734;6.544;2022-09-03T13:33:36;25.40;46.10
60039;DHT22;45916;52.734;6.544;2022-09-03T13:36:18;25.40;46.30
60039;DHT22;45916;52.734;6.544;2022-09-03T13:38:49;25.50;45.50
60039;DHT22;45916;52.734;6.544;2022-09-03T13:41:57;25.50;44.50
60039;DHT22;45916;52.734;6.544;2022-09-03T13:44:33;25.50;46.10
60039;DHT22;45916;52.734;6.544;2022-09-03T13:47:44;25.40;44.30
60039;DHT22;45916;52.734;6.544;2022-09-03T13:50:53;25.30;44.00
60039;DHT22;45916;52.734;6.544;2022-09-03T13:53:41;25.20;45.50
60039;DHT22;45916;52.734;6.544;2022-09-03T14:02:41;25.20;45.40
60039;DHT22;45916;52.734;6.544;2022-09-03T14:21:12;25.30;45.10
60039;DHT22;45916;52.734;6.544;2022-09-03T14:23:53;25.20;44.60
60039;DHT22;45916;52.734;6.544;2022-09-03T14:26:30;25.00;45.40
60039;DHT22;45916;52.734;6.544;2022-09-03T14:29:03;24.80;45.70
60039;DHT22;45916;52.734;6.544;2022-09-03T14:40:12;25.10;46.20
60039;DHT22;45916;52.734;6.544;2022-09-03T14:51:30;25.10;45.90
60039;DHT22;45916;52.734;6.544;2022-09-03T14:54:27;25.10;46.20
60039;DHT22;45916;52.734;6.544;2022-09-03T15:02:42;25.20;45.60
60039;DHT22;45916;52.734;6.544;2022-09-03T15:07:50;25.10;45.90
60039;DHT22;45916;52.734;6.544;2022-09-03T15:10:45;25.00;45.60
60039;DHT22;45916;52.734;6.544;2022-09-03T15:13:24;25.00;45.90
60039;DHT22;45916;52.734;6.544;2022-09-03T15:29:22;25.40;47.70
60039;DHT22;45916;52.734;6.544;2022-09-03T15:34:22;25.40;46.40
60039;DHT22;45916;52.734;6.544;2022-09-03T15:36:51;25.40;46.70
60039;DHT22;45916;52.734;6.544;2022-09-03T15:39:30;25.30;46.00
60039;DHT22;45916;52.734;6.544;2022-09-03T15:41:58;25.20;47.00
60039;DHT22;45916;52.734;6.544;2022-09-03T15:44:27;25.20;46.00
60039;DHT22;45916;52.734;6.544;2022-09-03T15:47:06;25.20;45.50
60039;DHT22;45916;52.734;6.544;2022-09-03T15:54:55;25.00;46.50
60039;DHT22;45916;52.734;6.544;2022-09-03T15:57:34;24.90;46.00
60039;DHT22;45916;52.734;6.544;2022-09-03T16:00:11;24.70;46.60
60039;DHT22;45916;52.734;6.544;2022-09-03T16:05:38;24.50;48.40
60039;DHT22;45916;52.734;6.544;2022-09-03T16:11:31;24.20;48.00
60039;DHT22;45916;52.734;6.544;2022-09-03T16:22:27;24.10;48.40
60039;DHT22;45916;52.734;6.544;2022-09-03T16:25:13;24.20;49.10
60039;DHT22;45916;52.734;6.544;2022-09-03T16:28:09;24.20;48.80
60039;DHT22;45916;52.734;6.544;2022-09-03T16:30:51;24.20;49.30
60039;DHT22;45916;52.734;6.544;2022-09-03T16:33:54;24.20;49.10
60039;DHT22;45916;52.734;6.544;2022-09-03T16:36:54;24.20;49.20
60039;DHT22;45916;52.734;6.544;2022-09-03T16:39:39;24.20;49.40
60039;DHT22;45916;52.734;6.544;2022-09-03T16:42:20;24.20;48.80
60039;DHT22;45916;52.734;6.544;2022-09-03T16:47:41;24.20;49.70
60039;DHT22;45916;52.734;6.544;2022-09-03T16:53:21;24.10;49.80
60039;DHT22;45916;52.734;6.544;2022-09-03T17:04:57;24.00;49.60
60039;DHT22;45916;52.734;6.544;2022-09-03T17:11:05;23.90;50.50
60039;DHT22;45916;52.734;6.544;2022-09-03T17:14:11;23.80;50.20
60039;DHT22;45916;52.734;6.544;2022-09-03T17:25:34;23.40;51.40
60039;DHT22;45916;52.734;6.544;2022-09-03T17:30:57;23.20;51.40
60039;DHT22;45916;52.734;6.544;2022-09-03T17:36:26;23.00;52.10
60039;DHT22;45916;52.734;6.544;2022-09-03T17:52:43;22.10;54.30
60039;DHT22;45916;52.734;6.544;2022-09-03T17:55:34;22.00;54.80
60039;DHT22;45916;52.734;6.544;2022-09-03T18:03:59;21.50;56.80
60039;DHT22;45916;52.734;6.544;2022-09-03T18:11:46;20.90;58.80
60039;DHT22;45916;52.734;6.544;2022-09-03T18:14:27;20.70;59.00
60039;DHT22;45916;52.734;6.544;2022-09-03T18:19:54;20.50;59.50
60039;DHT22;45916;52.734;6.544;2022-09-03T18:25:34;20.30;59.90
60039;DHT22;45916;52.734;6.544;2022-09-03T18:28:29;20.30;60.70
60039;DHT22;45916;52.734;6.544;2022-09-03T18:31:15;20.20;60.50
60039;DHT22;45916;52.734;6.544;2022-09-03T18:34:02;20.20;60.30
60039;DHT22;45916;52.734;6.544;2022-09-03T18:36:50;20.10;61.00
60039;DHT22;45916;52.734;6.544;2022-09-03T18:39:34;20.10;61.10
60039;DHT22;45916;52.734;6.544;2022-09-03T18:48:35;19.70;62.30
60039;DHT22;45916;52.734;6.544;2022-09-03T18:51:26;19.60;62.90
60039;DHT22;45916;52.734;6.544;2022-09-03T18:57:07;19.30;63.90
60039;DHT22;45916;52.734;6.544;2022-09-03T19:00:11;19.20;64.60
60039;DHT22;45916;52.734;6.544;2022-09-03T19:15:07;18.70;66.10
60039;DHT22;45916;52.734;6.544;2022-09-03T19:21:54;18.60;66.80
60039;DHT22;45916;52.734;6.544;2022-09-03T19:24:31;18.60;66.60
60039;DHT22;45916;52.734;6.544;2022-09-03T19:27:39;18.60;66.80
60039;DHT22;45916;52.734;6.544;2022-09-03T19:37:05;18.30;68.10
60039;DHT22;45916;52.734;6.544;2022-09-03T19:51:34;18.10;69.30
60039;DHT22;45916;52.734;6.544;2022-09-03T19:54:22;18.10;69.70
60039;DHT22;45916;52.734;6.544;2022-09-03T19:57:10;18.00;70.10
60039;DHT22;45916;52.734;6.544;2022-09-03T19:59:57;17.90;70.00
60039;DHT22;45916;52.734;6.544;2022-09-03T20:02:45;17.80;70.50
60039;DHT22;45916;52.734;6.544;2022-09-03T20:05:31;17.80;70.70
60039;DHT22;45916;52.734;6.544;2022-09-03T20:08:16;17.90;70.10
60039;DHT22;45916;52.734;6.544;2022-09-03T20:11:01;18.00;70.00
60039;DHT22;45916;52.734;6.544;2022-09-03T20:13:28;18.00;70.00
60039;DHT22;45916;52.734;6.544;2022-09-03T20:16:27;18.00;70.10
60039;DHT22;45916;52.734;6.544;2022-09-03T20:19:30;18.00;70.30
60039;DHT22;45916;52.734;6.544;2022-09-03T20:52:02;17.50;70.50
60039;DHT22;45916;52.734;6.544;2022-09-03T21:00:15;17.40;70.80
60039;DHT22;45916;52.734;6.544;2022-09-03T21:11:03;17.20;71.70
60039;DHT22;45916;52.734;6.544;2022-09-03T21:14:05;17.20;71.70
60039;DHT22;45916;52.734;6.544;2022-09-03T21:19:23;17.30;71.50
60039;DHT22;45916;52.734;6.544;2022-09-03T21:22:21;17.30;70.70
60039;DHT22;45916;52.734;6.544;2022-09-03T21:24:59;17.40;70.50
60039;DHT22;45916;52.734;6.544;2022-09-03T21:27:42;17.40;70.30
60039;DHT22;45916;52.734;6.544;2022-09-03T21:30:16;17.40;69.90
60039;DHT22;45916;52.734;6.544;2022-09-03T21:33:19;17.40;69.60
60039;DHT22;45916;52.734;6.544;2022-09-03T21:35:52;17.40;69.20
60039;DHT22;45916;52.734;6.544;2022-09-03T21:38:26;17.40;69.20
60039;DHT22;45916;52.734;6.544;2022-09-03T21:43:49;17.20;70.10
60039;DHT22;45916;52.734;6.544;2022-09-03T21:46:26;17.20;70.30
60039;DHT22;45916;52.734;6.544;2022-09-03T21:48:56;17.00;71.70
60039;DHT22;45916;52.734;6.544;2022-09-03T21:51:29;17.00;71.50
60039;DHT22;45916;52.734;6.544;2022-09-03T21:54:07;16.90;71.20
60039;DHT22;45916;52.734;6.544;2022-09-03T21:57:00;16.90;71.30
60039;DHT22;45916;52.734;6.544;2022-09-03T22:04:51;16.80;71.80
60039;DHT22;45916;52.734;6.544;2022-09-03T22:15:37;16.70;71.50
60039;DHT22;45916;52.734;6.544;2022-09-03T22:20:46;16.60;71.30
60039;DHT22;45916;52.734;6.544;2022-09-03T22:23:27;16.60;71.30
60039;DHT22;45916;52.734;6.544;2022-09-03T22:28:43;16.50;71.20
60039;DHT22;45916;52.734;6.544;2022-09-03T22:31:32;16.40;71.10
60039;DHT22;45916;52.734;6.544;2022-09-03T22:36:46;16.30;71.90
60039;DHT22;45916;52.734;6.544;2022-09-03T22:39:36;16.30;71.70
60039;DHT22;45916;52.734;6.544;2022-09-03T22:56:03;16.20;70.70
60039;DHT22;45916;52.734;6.544;2022-09-03T22:58:34;16.20;70.90
60039;DHT22;45916;52.734;6.544;2022-09-03T23:01:18;16.20;71.20
60039;DHT22;45916;52.734;6.544;2022-09-03T23:04:07;16.20;71.10
60039;DHT22;45916;52.734;6.544;2022-09-03T23:06:40;16.20;71.00
60039;DHT22;45916;52.734;6.544;2022-09-03T23:09:14;16.30;70.70